createdAt,value
2017-10-31T00:01:50.856Z,5.53
2017-10-31T00:04:18.792Z,4.67
2017-10-31T00:06:46.668Z,4.60
2017-10-31T00:09:14.519Z,5.10
2017-10-31T00:11:42.378Z,5.10
2017-10-31T00:14:11.076Z,6.20
2017-10-31T00:16:39.022Z,4.33
2017-10-31T00:19:07.779Z,4.83
2017-10-31T00:21:35.682Z,5.97
2017-10-31T00:24:03.684Z,5.17
2017-10-31T00:26:31.578Z,5.03
2017-10-31T00:28:59.467Z,4.20
2017-10-31T00:31:28.085Z,4.70
2017-10-31T00:33:56.050Z,3.63
2017-10-31T00:36:24.002Z,4.63
2017-10-31T00:38:52.650Z,4.97
2017-10-31T00:41:20.530Z,4.67
2017-10-31T00:43:48.457Z,4.77
2017-10-31T00:46:16.405Z,4.27
2017-10-31T00:48:44.375Z,4.10
2017-10-31T00:51:12.270Z,4.60
2017-10-31T00:53:40.143Z,4.67
2017-10-31T00:56:08.035Z,5.03
2017-10-31T00:58:36.263Z,5.03
2017-10-31T01:01:04.166Z,4.40
2017-10-31T01:03:32.057Z,4.93
2017-10-31T01:06:00.004Z,4.93
2017-10-31T01:08:28.079Z,5.90
2017-10-31T01:10:55.972Z,3.93
2017-10-31T01:13:23.867Z,5.27
2017-10-31T01:15:51.702Z,4.40
2017-10-31T01:18:20.378Z,5.40
2017-10-31T01:20:49.050Z,4.77
2017-10-31T01:23:16.926Z,5.00
2017-10-31T01:25:45.612Z,4.70
2017-10-31T01:28:13.579Z,4.00
2017-10-31T01:30:41.494Z,6.37
2017-10-31T01:33:09.394Z,5.20
2017-10-31T01:35:37.265Z,5.93
2017-10-31T01:38:05.164Z,4.90
2017-10-31T01:40:33.887Z,5.00
2017-10-31T01:43:01.948Z,5.40
2017-10-31T01:45:29.972Z,5.13
2017-10-31T01:47:58.622Z,5.50
2017-10-31T01:50:26.690Z,5.53
2017-10-31T01:52:54.701Z,5.90
2017-10-31T01:55:22.661Z,6.30
2017-10-31T01:57:50.673Z,6.20
2017-10-31T02:00:18.776Z,5.20
2017-10-31T02:02:46.807Z,5.80
2017-10-31T02:05:15.729Z,5.43
2017-10-31T02:07:43.730Z,5.80
2017-10-31T02:10:11.711Z,4.97
2017-10-31T02:12:40.445Z,8.20
2017-10-31T02:15:08.575Z,7.10
2017-10-31T02:17:37.240Z,6.60
2017-10-31T02:20:05.173Z,7.10
2017-10-31T02:22:33.120Z,7.03
2017-10-31T02:25:01.044Z,6.63
2017-10-31T02:27:28.984Z,6.37
2017-10-31T02:29:56.919Z,5.60
2017-10-31T02:32:24.982Z,6.13
2017-10-31T02:34:53.727Z,6.03
2017-10-31T02:37:21.568Z,6.00
2017-10-31T02:39:49.488Z,5.67
2017-10-31T02:42:17.483Z,6.27
2017-10-31T02:44:45.452Z,6.37
2017-10-31T02:47:13.362Z,6.00
2017-10-31T02:49:41.305Z,5.57
2017-10-31T02:52:09.220Z,5.60
2017-10-31T02:54:37.083Z,5.83
2017-10-31T02:57:05.035Z,5.70
2017-10-31T02:59:32.956Z,5.80
2017-10-31T03:02:01.854Z,6.30
2017-10-31T03:04:29.808Z,6.20
2017-10-31T03:06:57.760Z,5.73
2017-10-31T03:09:26.555Z,6.67
2017-10-31T03:11:55.356Z,5.60
2017-10-31T03:14:23.401Z,6.00
2017-10-31T03:16:51.342Z,6.57
2017-10-31T03:19:19.325Z,6.37
2017-10-31T03:21:47.381Z,6.00
2017-10-31T03:24:15.302Z,6.30
2017-10-31T03:26:43.993Z,5.57
2017-10-31T03:29:11.914Z,5.60
2017-10-31T03:31:39.843Z,5.67
2017-10-31T03:34:07.747Z,5.13
2017-10-31T03:36:35.692Z,5.40
2017-10-31T03:39:03.628Z,5.50
2017-10-31T03:41:32.339Z,6.37
2017-10-31T03:44:00.295Z,5.10
2017-10-31T03:46:28.279Z,5.80
2017-10-31T03:48:56.304Z,5.63
2017-10-31T03:51:24.414Z,5.47
2017-10-31T03:53:52.367Z,4.53
2017-10-31T03:56:20.345Z,5.93
2017-10-31T03:58:48.252Z,4.70
2017-10-31T04:01:16.232Z,5.10
2017-10-31T04:03:44.185Z,5.20
2017-10-31T04:06:12.161Z,4.93
2017-10-31T04:08:40.140Z,5.40
2017-10-31T04:11:08.043Z,4.83
2017-10-31T04:13:36.984Z,4.80
2017-10-31T04:16:04.926Z,4.77
2017-10-31T04:18:32.787Z,4.53
2017-10-31T04:21:00.732Z,4.70
2017-10-31T04:23:28.759Z,4.43
2017-10-31T04:25:56.676Z,4.53
2017-10-31T04:28:25.926Z,4.30
2017-10-31T04:30:53.897Z,5.13
2017-10-31T04:33:21.747Z,5.90
2017-10-31T04:35:50.664Z,4.63
2017-10-31T04:38:18.615Z,4.33
2017-10-31T04:40:46.539Z,5.23
2017-10-31T04:43:14.685Z,4.13
2017-10-31T04:45:43.366Z,4.27
2017-10-31T04:48:11.543Z,4.47
2017-10-31T04:50:39.431Z,5.10
2017-10-31T04:53:08.132Z,4.63
2017-10-31T04:55:36.079Z,5.20
2017-10-31T04:58:04.779Z,4.93
2017-10-31T05:00:32.675Z,5.00
2017-10-31T05:03:00.922Z,4.67
2017-10-31T05:05:28.741Z,5.10
2017-10-31T05:07:56.566Z,4.97
2017-10-31T05:10:24.368Z,4.90
2017-10-31T05:12:52.266Z,4.40
2017-10-31T05:15:20.902Z,5.40
2017-10-31T05:17:48.695Z,5.30
2017-10-31T05:20:16.504Z,5.33
2017-10-31T05:22:44.365Z,7.13
2017-10-31T05:25:12.231Z,5.57
2017-10-31T05:27:40.055Z,6.10
2017-10-31T05:30:07.908Z,7.40
2017-10-31T05:32:35.770Z,5.43
2017-10-31T05:35:03.608Z,5.67
2017-10-31T05:37:31.537Z,6.17
2017-10-31T05:40:00.288Z,5.90
2017-10-31T05:42:28.116Z,6.13
2017-10-31T05:44:55.917Z,6.80
2017-10-31T05:47:23.817Z,6.13
2017-10-31T05:49:52.441Z,6.10
2017-10-31T05:52:20.264Z,7.40
2017-10-31T05:54:48.116Z,7.10
2017-10-31T05:57:15.954Z,6.47
2017-10-31T05:59:43.850Z,5.47
2017-10-31T06:02:11.736Z,6.10
2017-10-31T06:04:40.448Z,7.50
2017-10-31T06:07:08.320Z,7.00
2017-10-31T06:09:36.236Z,7.87
2017-10-31T06:12:04.194Z,7.27
2017-10-31T06:14:32.227Z,7.70
2017-10-31T06:17:00.040Z,6.63
2017-10-31T06:19:27.904Z,6.17
2017-10-31T06:22:01.331Z,6.47
2017-10-31T06:24:35.498Z,7.00
2017-10-31T06:27:09.001Z,6.50
2017-10-31T06:29:42.823Z,6.90
2017-10-31T06:32:10.800Z,7.07
2017-10-31T06:34:38.952Z,7.47
2017-10-31T06:37:06.767Z,6.83
2017-10-31T06:39:35.405Z,6.50
2017-10-31T06:42:03.345Z,6.63
2017-10-31T06:44:31.980Z,6.17
2017-10-31T06:46:59.852Z,6.40
2017-10-31T06:49:28.456Z,7.17
2017-10-31T06:51:56.279Z,7.20
2017-10-31T06:54:24.218Z,7.27
2017-10-31T06:56:52.136Z,6.43
2017-10-31T06:59:20.793Z,5.57
2017-10-31T07:01:48.665Z,6.17
2017-10-31T07:04:16.501Z,6.73
2017-10-31T07:06:44.328Z,6.23
2017-10-31T07:09:12.924Z,6.10
2017-10-31T07:11:41.552Z,7.17
2017-10-31T07:14:09.435Z,5.90
2017-10-31T07:16:37.340Z,6.07
2017-10-31T07:19:05.997Z,6.20
2017-10-31T07:21:33.827Z,5.83
2017-10-31T07:24:01.716Z,7.23
2017-10-31T07:26:29.590Z,5.80
2017-10-31T07:28:57.471Z,6.27
2017-10-31T07:31:25.434Z,5.67
2017-10-31T07:33:53.490Z,5.67
2017-10-31T07:36:21.319Z,5.63
2017-10-31T07:38:51.476Z,6.87
2017-10-31T07:41:19.304Z,5.37
2017-10-31T07:43:47.158Z,6.90
2017-10-31T07:46:15.751Z,6.63
2017-10-31T07:48:43.671Z,6.17
2017-10-31T07:51:11.591Z,6.07
2017-10-31T07:53:40.211Z,5.00
2017-10-31T07:56:08.052Z,6.00
2017-10-31T07:58:35.956Z,5.13
2017-10-31T08:01:03.835Z,4.40
2017-10-31T08:03:32.566Z,5.43
2017-10-31T08:06:01.204Z,4.83
2017-10-31T08:08:29.811Z,5.07
2017-10-31T08:10:57.648Z,5.73
2017-10-31T08:13:26.272Z,4.57
2017-10-31T08:15:54.132Z,4.93
2017-10-31T08:18:22.095Z,5.03
2017-10-31T08:20:50.209Z,4.90
2017-10-31T08:23:18.191Z,5.28
2017-10-31T08:25:46.069Z,4.93
2017-10-31T08:28:13.967Z,5.13
2017-10-31T08:30:41.873Z,4.50
2017-10-31T08:33:09.777Z,4.27
2017-10-31T08:35:37.798Z,4.90
2017-10-31T08:38:05.932Z,4.33
2017-10-31T08:40:34.896Z,4.80
2017-10-31T08:43:02.788Z,3.83
2017-10-31T08:45:31.703Z,4.43
2017-10-31T08:47:59.590Z,4.50
2017-10-31T08:50:27.465Z,5.97
2017-10-31T08:52:55.376Z,4.40
2017-10-31T08:55:24.004Z,4.63
2017-10-31T08:57:51.927Z,4.50
2017-10-31T09:00:20.822Z,5.70
2017-10-31T09:02:49.453Z,5.10
2017-10-31T09:05:17.327Z,4.70
2017-10-31T09:07:45.235Z,4.90
2017-10-31T09:10:13.894Z,4.80
2017-10-31T09:12:41.760Z,4.47
2017-10-31T09:15:09.617Z,5.03
2017-10-31T09:17:37.471Z,4.20
2017-10-31T09:20:06.342Z,4.20
2017-10-31T09:22:34.233Z,4.10
2017-10-31T09:25:02.300Z,4.47
2017-10-31T09:27:30.176Z,4.20
2017-10-31T09:29:58.022Z,4.63
2017-10-31T09:32:25.938Z,4.27
2017-10-31T09:34:53.980Z,4.33
2017-10-31T09:37:21.837Z,4.90
2017-10-31T09:39:49.711Z,4.57
2017-10-31T09:42:18.172Z,4.50
2017-10-31T09:44:46.108Z,3.83
2017-10-31T09:47:15.019Z,4.23
2017-10-31T09:49:42.944Z,4.57
2017-10-31T09:52:10.811Z,4.07
2017-10-31T09:54:38.658Z,4.20
2017-10-31T09:57:06.731Z,3.90
2017-10-31T09:59:34.582Z,4.23
2017-10-31T10:02:02.532Z,4.07
2017-10-31T10:04:31.134Z,4.40
2017-10-31T10:06:58.994Z,4.40
2017-10-31T10:09:26.861Z,4.00
2017-10-31T10:11:54.719Z,3.85
2017-10-31T10:14:22.823Z,4.50
2017-10-31T10:16:50.947Z,4.47
2017-10-31T10:19:18.912Z,4.63
2017-10-31T10:21:46.765Z,4.67
2017-10-31T10:24:15.392Z,3.90
2017-10-31T10:26:43.318Z,4.10
2017-10-31T10:29:11.528Z,4.40
2017-10-31T10:31:39.426Z,3.87
2017-10-31T10:34:07.669Z,4.33
2017-10-31T10:36:35.817Z,4.50
2017-10-31T10:39:03.869Z,6.50
2017-10-31T10:41:32.505Z,4.23
2017-10-31T10:44:00.371Z,5.93
2017-10-31T10:46:28.552Z,4.40
2017-10-31T10:48:56.411Z,5.10
2017-10-31T10:51:24.382Z,5.73
2017-10-31T10:56:29.491Z,4.30
2017-10-31T10:58:57.636Z,3.77
2017-10-31T11:01:26.327Z,4.03
2017-10-31T11:03:55.049Z,4.57
2017-10-31T11:06:22.941Z,3.70
2017-10-31T11:08:51.090Z,4.67
2017-10-31T11:11:19.114Z,4.40
2017-10-31T11:13:47.039Z,3.90
2017-10-31T11:16:14.933Z,4.13
2017-10-31T11:18:42.840Z,4.40
2017-10-31T11:21:11.514Z,5.47
2017-10-31T11:23:40.167Z,3.97
2017-10-31T11:26:08.047Z,5.30
2017-10-31T11:28:35.979Z,4.13
2017-10-31T11:31:03.869Z,4.50
2017-10-31T11:33:32.659Z,3.60
2017-10-31T11:36:00.535Z,4.10
2017-10-31T11:38:29.077Z,4.03
2017-10-31T11:40:56.929Z,4.77
2017-10-31T11:43:24.883Z,5.00
2017-10-31T11:45:53.504Z,3.80
2017-10-31T11:48:21.568Z,4.23
2017-10-31T11:50:50.704Z,3.30
2017-10-31T11:53:20.233Z,3.70
2017-10-31T11:55:48.867Z,3.80
2017-10-31T11:58:16.739Z,3.50
2017-10-31T12:00:44.613Z,4.07
2017-10-31T12:03:12.461Z,5.40
2017-10-31T12:05:40.309Z,3.30
2017-10-31T12:08:08.266Z,3.57
2017-10-31T12:10:36.918Z,4.90
2017-10-31T12:13:04.948Z,4.27
2017-10-31T12:15:32.797Z,4.00
2017-10-31T12:18:00.664Z,4.20
2017-10-31T12:20:28.523Z,4.50
2017-10-31T12:22:56.412Z,3.70
2017-10-31T12:25:24.320Z,4.03
2017-10-31T12:27:52.298Z,4.40
2017-10-31T12:30:20.270Z,5.27
2017-10-31T12:32:48.141Z,5.50
2017-10-31T12:35:17.214Z,5.20
2017-10-31T12:37:45.079Z,5.33
2017-10-31T12:40:13.141Z,4.13
2017-10-31T12:42:41.021Z,4.23
2017-10-31T12:45:08.893Z,4.67
2017-10-31T12:47:37.895Z,4.97
2017-10-31T12:50:06.547Z,4.97
2017-10-31T12:52:34.400Z,5.23
2017-10-31T12:55:02.310Z,4.67
2017-10-31T12:57:30.197Z,4.60
2017-10-31T12:59:58.828Z,4.97
2017-10-31T13:02:26.728Z,4.43
2017-10-31T13:04:54.673Z,4.03
2017-10-31T13:07:22.607Z,4.30
2017-10-31T13:09:50.526Z,3.80
2017-10-31T13:12:18.375Z,3.97
2017-10-31T13:14:46.418Z,3.80
2017-10-31T13:17:14.311Z,4.40
2017-10-31T13:19:43.122Z,3.60
2017-10-31T13:22:11.012Z,4.10
2017-10-31T13:24:39.704Z,3.73
2017-10-31T13:27:08.881Z,3.97
2017-10-31T13:29:38.820Z,4.20
2017-10-31T13:32:07.643Z,4.30
2017-10-31T13:34:36.028Z,4.10
2017-10-31T13:37:04.432Z,4.40
2017-10-31T13:39:32.799Z,4.70
2017-10-31T13:42:01.199Z,4.67
2017-10-31T13:44:31.850Z,4.40
2017-10-31T13:46:59.993Z,5.23
2017-10-31T13:49:28.687Z,4.70
2017-10-31T13:51:58.005Z,4.60
2017-10-31T13:54:26.714Z,4.33
2017-10-31T13:56:54.779Z,5.37
2017-10-31T13:59:22.951Z,4.17
2017-10-31T14:01:51.264Z,4.80
2017-10-31T14:04:20.025Z,4.60
2017-10-31T14:06:48.445Z,4.23
2017-10-31T14:09:17.232Z,3.93
2017-10-31T14:11:45.619Z,4.20
2017-10-31T14:14:13.758Z,4.87
2017-10-31T14:16:41.694Z,4.23
2017-10-31T14:19:09.772Z,4.60
2017-10-31T14:21:37.704Z,4.43
2017-10-31T14:24:05.888Z,4.77
2017-10-31T14:29:13.028Z,4.43
2017-10-31T14:31:46.231Z,5.83
2017-10-31T14:34:14.334Z,5.03
2017-10-31T14:36:42.485Z,5.33
2017-10-31T14:39:10.417Z,5.20
2017-10-31T14:41:38.460Z,5.67
2017-10-31T14:44:08.224Z,4.60
2017-10-31T14:46:36.143Z,4.17
2017-10-31T14:49:04.856Z,4.77
2017-10-31T14:51:33.929Z,4.03
2017-10-31T14:54:01.919Z,4.27
2017-10-31T14:56:29.820Z,4.27
2017-10-31T14:58:57.727Z,4.67
2017-10-31T15:01:26.408Z,4.27
2017-10-31T15:03:55.124Z,4.93
2017-10-31T15:06:23.054Z,4.03
2017-10-31T15:08:50.973Z,4.67
2017-10-31T15:11:19.119Z,4.37
2017-10-31T15:13:47.107Z,4.43
2017-10-31T15:16:15.006Z,4.33
2017-10-31T15:18:43.020Z,4.87
2017-10-31T15:21:10.977Z,5.00
2017-10-31T15:23:39.662Z,3.90
2017-10-31T15:26:08.961Z,4.50
2017-10-31T15:28:36.927Z,4.10
2017-10-31T15:31:05.719Z,4.43
2017-10-31T15:33:34.404Z,4.47
2017-10-31T15:36:03.098Z,4.53
2017-10-31T15:38:31.771Z,4.33
2017-10-31T15:41:00.466Z,4.33
2017-10-31T15:43:29.138Z,4.10
2017-10-31T15:45:58.407Z,4.30
2017-10-31T15:48:26.429Z,4.87
2017-10-31T15:50:54.570Z,4.30
2017-10-31T15:53:22.499Z,4.60
2017-10-31T15:55:50.446Z,4.50
2017-10-31T15:58:18.383Z,4.30
2017-10-31T16:00:46.550Z,4.67
2017-10-31T16:03:14.605Z,4.90
2017-10-31T16:05:42.486Z,4.70
2017-10-31T16:08:10.451Z,5.27
2017-10-31T16:10:38.418Z,5.50
2017-10-31T16:13:06.411Z,5.23
2017-10-31T16:15:36.106Z,6.27
2017-10-31T16:18:04.083Z,5.83
2017-10-31T16:20:32.003Z,5.10
2017-10-31T16:22:59.915Z,4.97
2017-10-31T16:25:27.856Z,4.43
2017-10-31T16:27:55.788Z,5.20
2017-10-31T16:30:23.743Z,5.53
2017-10-31T16:32:51.666Z,5.77
2017-10-31T16:35:20.532Z,5.43
2017-10-31T16:37:48.495Z,6.00
2017-10-31T16:40:16.556Z,4.87
2017-10-31T16:42:44.595Z,5.30
2017-10-31T16:45:13.287Z,5.33
2017-10-31T16:47:42.332Z,5.23
2017-10-31T16:50:10.246Z,5.10
2017-10-31T16:52:39.419Z,5.20
2017-10-31T16:55:07.498Z,5.17
2017-10-31T16:57:35.491Z,5.50
2017-10-31T17:00:04.281Z,5.37
2017-10-31T17:02:32.289Z,5.90
2017-10-31T17:05:00.202Z,5.00
2017-10-31T17:07:28.995Z,5.10
2017-10-31T17:10:04.373Z,4.80
2017-10-31T17:12:33.126Z,5.23
2017-10-31T17:15:01.988Z,4.77
2017-10-31T17:17:30.410Z,5.70
2017-10-31T17:19:59.093Z,6.07
2017-10-31T17:22:27.824Z,6.03
2017-10-31T17:24:55.851Z,5.80
2017-10-31T17:27:24.773Z,5.10
2017-10-31T17:29:52.602Z,5.40
2017-10-31T17:32:21.196Z,4.87
2017-10-31T17:34:49.209Z,8.07
2017-10-31T17:37:17.213Z,5.67
2017-10-31T17:39:45.989Z,6.83
2017-10-31T17:42:13.901Z,5.73
2017-10-31T17:44:42.191Z,5.70
2017-10-31T17:47:10.049Z,6.10
2017-10-31T17:49:42.572Z,5.60
2017-10-31T17:52:11.597Z,5.67
2017-10-31T17:54:51.758Z,6.30
2017-10-31T17:57:20.078Z,6.60
2017-10-31T17:59:48.263Z,6.80
2017-10-31T18:02:16.961Z,5.53
2017-10-31T18:04:45.912Z,5.70
2017-10-31T18:07:13.865Z,6.23
2017-10-31T18:09:41.789Z,5.40
2017-10-31T18:12:09.741Z,6.40
2017-10-31T18:14:37.711Z,5.77
2017-10-31T18:17:05.629Z,5.40
2017-10-31T18:19:33.530Z,5.60
2017-10-31T18:22:01.423Z,5.60
2017-10-31T18:24:29.360Z,7.30
2017-10-31T18:26:58.248Z,7.40
2017-10-31T18:29:27.266Z,6.60
2017-10-31T18:31:55.305Z,5.93
2017-10-31T18:34:23.215Z,5.27
2017-10-31T18:36:51.055Z,5.20
2017-10-31T18:39:18.992Z,6.53
2017-10-31T18:41:46.808Z,6.93
2017-10-31T18:44:14.762Z,6.30
2017-10-31T18:46:42.845Z,5.50
2017-10-31T18:49:10.938Z,5.40
2017-10-31T18:51:39.605Z,6.70
2017-10-31T18:54:07.510Z,5.20
2017-10-31T18:56:35.457Z,5.87
2017-10-31T18:59:04.292Z,5.93
2017-10-31T19:01:32.264Z,9.73
2017-10-31T19:04:00.159Z,12.93
2017-10-31T19:06:28.103Z,20.17
2017-10-31T19:08:57.142Z,19.87
2017-10-31T19:11:25.112Z,11.47
2017-10-31T19:13:53.819Z,14.87
2017-10-31T19:16:21.670Z,16.10
2017-10-31T19:18:50.324Z,15.77
2017-10-31T19:21:18.153Z,16.07
2017-10-31T19:23:46.029Z,16.87
2017-10-31T19:26:13.993Z,16.83
2017-10-31T19:28:41.895Z,15.97
2017-10-31T19:31:09.708Z,15.97
2017-10-31T19:33:37.584Z,15.00
2017-10-31T19:36:05.484Z,14.73
2017-10-31T19:38:33.475Z,19.40
2017-10-31T19:41:02.191Z,16.97
2017-10-31T19:43:30.177Z,22.83
2017-10-31T19:45:58.104Z,15.57
2017-10-31T19:48:26.815Z,13.70
2017-10-31T19:50:55.042Z,11.77
2017-10-31T19:53:23.157Z,9.50
2017-10-31T19:55:51.084Z,10.70
2017-10-31T19:58:18.963Z,9.00
2017-10-31T20:00:46.832Z,9.87
2017-10-31T20:03:14.684Z,9.60
2017-10-31T20:05:42.599Z,8.90
2017-10-31T20:08:10.506Z,7.80
2017-10-31T20:10:38.417Z,7.83
2017-10-31T20:13:07.087Z,7.63
2017-10-31T20:15:35.839Z,8.43
2017-10-31T20:18:03.704Z,11.20
2017-10-31T20:20:31.606Z,10.43
2017-10-31T20:22:59.450Z,11.30
2017-10-31T20:25:27.347Z,15.17
2017-10-31T20:27:55.944Z,19.03
2017-10-31T20:30:23.813Z,20.57
2017-10-31T20:32:52.424Z,24.20
2017-10-31T20:35:20.252Z,33.10
2017-10-31T20:37:48.921Z,37.30
2017-10-31T20:40:16.813Z,37.20
2017-10-31T20:42:45.406Z,27.63
2017-10-31T20:45:13.269Z,25.40
2017-10-31T20:47:41.157Z,17.67
2017-10-31T20:50:09.038Z,13.00
2017-10-31T20:52:36.948Z,7.80
2017-10-31T20:55:05.934Z,6.37
2017-10-31T20:57:33.993Z,6.03
2017-10-31T21:00:01.896Z,6.50
2017-10-31T21:02:30.535Z,6.80
2017-10-31T21:04:58.759Z,8.10
2017-10-31T21:07:26.848Z,7.37
2017-10-31T21:09:54.728Z,7.07
2017-10-31T21:12:22.797Z,6.77
2017-10-31T21:14:50.660Z,6.73
2017-10-31T21:17:18.668Z,7.97
2017-10-31T21:19:46.805Z,8.33
2017-10-31T21:22:14.775Z,7.20
2017-10-31T21:24:42.840Z,7.83
2017-10-31T21:27:10.862Z,7.80
2017-10-31T21:29:39.850Z,9.83
2017-10-31T21:32:08.622Z,8.57
2017-10-31T21:34:36.601Z,11.33
2017-10-31T21:37:05.353Z,10.50
2017-10-31T21:39:33.540Z,13.90
2017-10-31T21:42:01.569Z,12.30
2017-10-31T21:44:29.566Z,16.00
2017-10-31T21:46:57.535Z,15.20
2017-10-31T21:49:25.665Z,16.40
2017-10-31T21:51:54.396Z,14.60
2017-10-31T21:54:22.610Z,8.70
2017-10-31T21:56:50.666Z,7.97
2017-10-31T21:59:18.795Z,6.57
2017-10-31T22:01:46.822Z,5.97
2017-10-31T22:04:14.776Z,5.20
2017-10-31T22:06:42.744Z,4.73
2017-10-31T22:09:10.825Z,4.80
2017-10-31T22:11:39.592Z,4.67
2017-10-31T22:14:07.553Z,4.27
2017-10-31T22:16:36.101Z,4.63
2017-10-31T22:19:04.184Z,4.00
2017-10-31T22:21:32.119Z,5.00
2017-10-31T22:24:00.804Z,4.23
2017-10-31T22:26:29.448Z,3.93
2017-10-31T22:28:57.277Z,3.90
2017-10-31T22:31:25.387Z,4.20
2017-10-31T22:33:53.249Z,4.50
2017-10-31T22:36:21.155Z,4.30
2017-10-31T22:38:49.777Z,4.13
2017-10-31T22:41:17.686Z,4.10
2017-10-31T22:43:45.528Z,4.30
2017-10-31T22:46:13.362Z,4.20
2017-10-31T22:48:41.196Z,4.10
2017-10-31T22:51:09.467Z,3.83
2017-10-31T22:53:37.312Z,3.90
2017-10-31T22:56:05.140Z,4.00
2017-10-31T22:58:33.006Z,3.80
2017-10-31T23:01:02.062Z,3.07
2017-10-31T23:03:29.887Z,3.00
2017-10-31T23:05:57.733Z,4.93
2017-10-31T23:08:25.586Z,4.17
2017-10-31T23:10:54.329Z,3.60
2017-10-31T23:13:22.276Z,3.60
2017-10-31T23:15:50.200Z,4.20
2017-10-31T23:18:18.861Z,3.73
2017-10-31T23:20:46.717Z,3.97
2017-10-31T23:23:14.644Z,3.83
2017-10-31T23:25:42.480Z,4.10
2017-10-31T23:28:11.108Z,4.10
2017-10-31T23:30:38.923Z,3.73
2017-10-31T23:33:06.851Z,4.57
2017-10-31T23:35:34.926Z,4.33
2017-10-31T23:38:02.741Z,4.80
2017-10-31T23:40:31.608Z,3.90
2017-10-31T23:42:59.508Z,3.87
2017-10-31T23:45:27.415Z,3.60
2017-10-31T23:47:55.273Z,3.97
2017-10-31T23:50:23.182Z,4.17
2017-10-31T23:52:51.023Z,4.13
2017-10-31T23:55:18.851Z,4.10
2017-10-31T23:57:46.662Z,4.20
